sensor_id;sensor_type;location;lat;lon;timestamp;P1;durP1;ratioP1;P2;durP2;ratioP2
75935;SDS011;64614;32.062;34.834;2023-04-07T00:01:04;6.88;;;3.20;;
75935;SDS011;64614;32.062;34.834;2023-04-07T00:03:31;6.35;;;3.30;;
75935;SDS011;64614;32.062;34.834;2023-04-07T00:05:57;8.13;;;3.63;;
75935;SDS011;64614;32.062;34.834;2023-04-07T00:08:23;8.38;;;3.50;;
75935;SDS011;64614;32.062;34.834;2023-04-07T00:10:49;7.10;;;3.53;;
75935;SDS011;64614;32.062;34.834;2023-04-07T00:13:16;7.57;;;3.95;;
75935;SDS011;64614;32.062;34.834;2023-04-07T00:15:41;8.38;;;3.90;;
75935;SDS011;64614;32.062;34.834;2023-04-07T00:18:07;8.10;;;4.15;;
75935;SDS011;64614;32.062;34.834;2023-04-07T00:20:33;7.28;;;3.83;;
75935;SDS011;64614;32.062;34.834;2023-04-07T00:22:59;7.53;;;4.20;;
75935;SDS011;64614;32.062;34.834;2023-04-07T00:25:24;8.23;;;4.05;;
75935;SDS011;64614;32.062;34.834;2023-04-07T00:27:50;8.15;;;4.10;;
75935;SDS011;64614;32.062;34.834;2023-04-07T00:30:16;6.97;;;3.70;;
75935;SDS011;64614;32.062;34.834;2023-04-07T00:32:42;7.70;;;4.18;;
75935;SDS011;64614;32.062;34.834;2023-04-07T00:35:08;9.80;;;4.40;;
75935;SDS011;64614;32.062;34.834;2023-04-07T00:37:34;7.90;;;4.38;;
75935;SDS011;64614;32.062;34.834;2023-04-07T00:39:59;8.18;;;4.30;;
75935;SDS011;64614;32.062;34.834;2023-04-07T00:42:26;7.60;;;4.25;;
75935;SDS011;64614;32.062;34.834;2023-04-07T00:44:52;8.93;;;4.40;;
75935;SDS011;64614;32.062;34.834;2023-04-07T00:47:18;8.63;;;4.38;;
75935;SDS011;64614;32.062;34.834;2023-04-07T00:49:44;9.35;;;4.63;;
75935;SDS011;64614;32.062;34.834;2023-04-07T00:52:12;10.15;;;4.40;;
75935;SDS011;64614;32.062;34.834;2023-04-07T00:54:40;9.07;;;4.30;;
75935;SDS011;64614;32.062;34.834;2023-04-07T00:57:06;7.75;;;4.28;;
75935;SDS011;64614;32.062;34.834;2023-04-07T00:59:33;9.13;;;4.60;;
75935;SDS011;64614;32.062;34.834;2023-04-07T01:02:03;7.72;;;4.13;;
75935;SDS011;64614;32.062;34.834;2023-04-07T01:07:33;7.95;;;4.43;;
75935;SDS011;64614;32.062;34.834;2023-04-07T01:10:08;8.57;;;4.32;;
75935;SDS011;64614;32.062;34.834;2023-04-07T01:15:11;8.48;;;4.40;;
75935;SDS011;64614;32.062;34.834;2023-04-07T01:17:44;9.30;;;4.60;;
75935;SDS011;64614;32.062;34.834;2023-04-07T01:20:13;8.43;;;4.68;;
75935;SDS011;64614;32.062;34.834;2023-04-07T01:22:50;9.38;;;5.20;;
75935;SDS011;64614;32.062;34.834;2023-04-07T01:30:29;8.27;;;4.60;;
75935;SDS011;64614;32.062;34.834;2023-04-07T01:32:59;13.65;;;5.35;;
75935;SDS011;64614;32.062;34.834;2023-04-07T01:35:28;10.45;;;4.82;;
75935;SDS011;64614;32.062;34.834;2023-04-07T01:37:56;9.93;;;5.00;;
75935;SDS011;64614;32.062;34.834;2023-04-07T01:40:24;9.85;;;5.22;;
75935;SDS011;64614;32.062;34.834;2023-04-07T01:42:52;10.98;;;4.85;;
75935;SDS011;64614;32.062;34.834;2023-04-07T01:45:20;10.80;;;5.10;;
75935;SDS011;64614;32.062;34.834;2023-04-07T01:47:46;9.93;;;5.03;;
75935;SDS011;64614;32.062;34.834;2023-04-07T01:50:13;10.80;;;5.28;;
75935;SDS011;64614;32.062;34.834;2023-04-07T01:52:41;9.40;;;4.93;;
75935;SDS011;64614;32.062;34.834;2023-04-07T01:55:07;9.38;;;5.22;;
75935;SDS011;64614;32.062;34.834;2023-04-07T01:57:34;10.15;;;5.45;;
75935;SDS011;64614;32.062;34.834;2023-04-07T02:00:00;11.13;;;5.30;;
75935;SDS011;64614;32.062;34.834;2023-04-07T02:02:27;9.27;;;5.35;;
75935;SDS011;64614;32.062;34.834;2023-04-07T02:04:56;10.43;;;5.35;;
75935;SDS011;64614;32.062;34.834;2023-04-07T02:07:31;11.75;;;5.35;;
75935;SDS011;64614;32.062;34.834;2023-04-07T02:10:04;10.88;;;5.72;;
75935;SDS011;64614;32.062;34.834;2023-04-07T02:12:33;11.23;;;5.65;;
75935;SDS011;64614;32.062;34.834;2023-04-07T02:15:04;11.30;;;5.75;;
75935;SDS011;64614;32.062;34.834;2023-04-07T02:17:33;10.07;;;5.25;;
75935;SDS011;64614;32.062;34.834;2023-04-07T02:20:02;9.93;;;5.50;;
75935;SDS011;64614;32.062;34.834;2023-04-07T02:22:30;10.23;;;5.43;;
75935;SDS011;64614;32.062;34.834;2023-04-07T02:24:57;10.15;;;5.50;;
75935;SDS011;64614;32.062;34.834;2023-04-07T02:27:23;10.55;;;5.30;;
75935;SDS011;64614;32.062;34.834;2023-04-07T02:29:48;12.45;;;5.68;;
75935;SDS011;64614;32.062;34.834;2023-04-07T02:32:14;10.98;;;6.03;;
75935;SDS011;64614;32.062;34.834;2023-04-07T02:34:41;10.95;;;5.70;;
75935;SDS011;64614;32.062;34.834;2023-04-07T02:37:07;10.27;;;5.97;;
75935;SDS011;64614;32.062;34.834;2023-04-07T02:39:33;11.18;;;5.57;;
75935;SDS011;64614;32.062;34.834;2023-04-07T02:41:59;11.10;;;6.07;;
75935;SDS011;64614;32.062;34.834;2023-04-07T02:44:25;11.63;;;5.75;;
75935;SDS011;64614;32.062;34.834;2023-04-07T02:46:50;11.07;;;5.53;;
75935;SDS011;64614;32.062;34.834;2023-04-07T02:49:22;10.20;;;5.63;;
75935;SDS011;64614;32.062;34.834;2023-04-07T02:51:48;11.40;;;5.68;;
75935;SDS011;64614;32.062;34.834;2023-04-07T02:54:14;12.10;;;5.60;;
75935;SDS011;64614;32.062;34.834;2023-04-07T02:56:40;9.43;;;4.90;;
75935;SDS011;64614;32.062;34.834;2023-04-07T02:59:06;11.40;;;5.50;;
75935;SDS011;64614;32.062;34.834;2023-04-07T03:01:32;10.45;;;5.65;;
75935;SDS011;64614;32.062;34.834;2023-04-07T03:03:58;9.55;;;6.10;;
75935;SDS011;64614;32.062;34.834;2023-04-07T03:06:24;9.82;;;5.47;;
75935;SDS011;64614;32.062;34.834;2023-04-07T03:08:51;10.07;;;5.75;;
75935;SDS011;64614;32.062;34.834;2023-04-07T03:11:16;10.23;;;5.82;;
75935;SDS011;64614;32.062;34.834;2023-04-07T03:13:42;10.23;;;5.32;;
75935;SDS011;64614;32.062;34.834;2023-04-07T03:16:08;10.52;;;5.97;;
75935;SDS011;64614;32.062;34.834;2023-04-07T03:18:33;11.35;;;5.72;;
75935;SDS011;64614;32.062;34.834;2023-04-07T03:20:59;10.77;;;6.07;;
75935;SDS011;64614;32.062;34.834;2023-04-07T03:23:25;12.45;;;5.93;;
75935;SDS011;64614;32.062;34.834;2023-04-07T03:25:52;11.48;;;6.00;;
75935;SDS011;64614;32.062;34.834;2023-04-07T03:28:18;12.45;;;6.43;;
75935;SDS011;64614;32.062;34.834;2023-04-07T03:30:43;11.95;;;6.47;;
75935;SDS011;64614;32.062;34.834;2023-04-07T03:33:09;11.43;;;6.32;;
75935;SDS011;64614;32.062;34.834;2023-04-07T03:35:35;13.23;;;6.40;;
75935;SDS011;64614;32.062;34.834;2023-04-07T03:38:00;12.32;;;6.90;;
75935;SDS011;64614;32.062;34.834;2023-04-07T03:40:26;12.35;;;7.00;;
75935;SDS011;64614;32.062;34.834;2023-04-07T03:42:52;13.80;;;6.63;;
75935;SDS011;64614;32.062;34.834;2023-04-07T03:45:17;14.65;;;6.53;;
75935;SDS011;64614;32.062;34.834;2023-04-07T03:47:43;15.30;;;7.07;;
75935;SDS011;64614;32.062;34.834;2023-04-07T03:50:09;12.40;;;6.57;;
75935;SDS011;64614;32.062;34.834;2023-04-07T03:52:35;13.25;;;6.90;;
75935;SDS011;64614;32.062;34.834;2023-04-07T03:55:00;13.85;;;6.40;;
75935;SDS011;64614;32.062;34.834;2023-04-07T03:57:26;12.70;;;6.55;;
75935;SDS011;64614;32.062;34.834;2023-04-07T03:59:52;12.98;;;6.50;;
75935;SDS011;64614;32.062;34.834;2023-04-07T04:02:19;12.35;;;6.30;;
75935;SDS011;64614;32.062;34.834;2023-04-07T04:04:44;13.02;;;6.78;;
75935;SDS011;64614;32.062;34.834;2023-04-07T04:07:10;14.68;;;7.20;;
75935;SDS011;64614;32.062;34.834;2023-04-07T04:09:36;13.07;;;7.15;;
75935;SDS011;64614;32.062;34.834;2023-04-07T04:12:02;14.30;;;7.13;;
75935;SDS011;64614;32.062;34.834;2023-04-07T04:14:28;15.50;;;6.60;;
75935;SDS011;64614;32.062;34.834;2023-04-07T04:16:54;14.35;;;7.55;;
75935;SDS011;64614;32.062;34.834;2023-04-07T04:19:19;15.82;;;7.28;;
75935;SDS011;64614;32.062;34.834;2023-04-07T04:21:45;14.73;;;7.85;;
75935;SDS011;64614;32.062;34.834;2023-04-07T04:24:11;15.48;;;8.52;;
75935;SDS011;64614;32.062;34.834;2023-04-07T04:26:37;17.15;;;9.40;;
75935;SDS011;64614;32.062;34.834;2023-04-07T04:29:02;17.15;;;9.55;;
75935;SDS011;64614;32.062;34.834;2023-04-07T04:31:28;18.88;;;10.48;;
75935;SDS011;64614;32.062;34.834;2023-04-07T04:33:54;15.05;;;8.90;;
75935;SDS011;64614;32.062;34.834;2023-04-07T04:36:20;17.80;;;9.27;;
75935;SDS011;64614;32.062;34.834;2023-04-07T04:38:45;17.92;;;9.20;;
75935;SDS011;64614;32.062;34.834;2023-04-07T04:41:11;21.63;;;10.75;;
75935;SDS011;64614;32.062;34.834;2023-04-07T04:43:37;27.88;;;13.68;;
75935;SDS011;64614;32.062;34.834;2023-04-07T04:46:02;34.55;;;17.52;;
75935;SDS011;64614;32.062;34.834;2023-04-07T04:48:28;37.10;;;17.25;;
75935;SDS011;64614;32.062;34.834;2023-04-07T04:50:54;37.05;;;17.00;;
75935;SDS011;64614;32.062;34.834;2023-04-07T04:53:19;37.67;;;17.50;;
75935;SDS011;64614;32.062;34.834;2023-04-07T04:55:46;35.78;;;17.85;;
75935;SDS011;64614;32.062;34.834;2023-04-07T04:58:16;44.95;;;19.48;;
75935;SDS011;64614;32.062;34.834;2023-04-07T05:00:45;47.38;;;23.17;;
75935;SDS011;64614;32.062;34.834;2023-04-07T05:03:10;54.92;;;25.85;;
75935;SDS011;64614;32.062;34.834;2023-04-07T05:05:36;57.63;;;26.35;;
75935;SDS011;64614;32.062;34.834;2023-04-07T05:08:02;57.28;;;27.65;;
75935;SDS011;64614;32.062;34.834;2023-04-07T05:10:28;59.05;;;26.67;;
75935;SDS011;64614;32.062;34.834;2023-04-07T05:12:53;55.63;;;27.30;;
75935;SDS011;64614;32.062;34.834;2023-04-07T05:15:19;51.65;;;25.67;;
75935;SDS011;64614;32.062;34.834;2023-04-07T05:17:45;48.80;;;25.42;;
75935;SDS011;64614;32.062;34.834;2023-04-07T05:20:14;52.13;;;25.73;;
75935;SDS011;64614;32.062;34.834;2023-04-07T05:22:41;51.30;;;24.48;;
75935;SDS011;64614;32.062;34.834;2023-04-07T05:25:07;53.85;;;24.77;;
75935;SDS011;64614;32.062;34.834;2023-04-07T05:27:34;55.55;;;26.70;;
75935;SDS011;64614;32.062;34.834;2023-04-07T05:29:59;60.75;;;27.40;;
75935;SDS011;64614;32.062;34.834;2023-04-07T05:32:26;47.60;;;25.52;;
75935;SDS011;64614;32.062;34.834;2023-04-07T05:34:53;48.70;;;25.00;;
75935;SDS011;64614;32.062;34.834;2023-04-07T05:37:19;48.95;;;24.73;;
75935;SDS011;64614;32.062;34.834;2023-04-07T05:39:44;45.80;;;23.80;;
75935;SDS011;64614;32.062;34.834;2023-04-07T05:42:10;47.70;;;23.95;;
75935;SDS011;64614;32.062;34.834;2023-04-07T05:44:36;48.33;;;23.70;;
75935;SDS011;64614;32.062;34.834;2023-04-07T05:47:01;42.03;;;22.98;;
75935;SDS011;64614;32.062;34.834;2023-04-07T05:49:30;43.50;;;21.70;;
75935;SDS011;64614;32.062;34.834;2023-04-07T05:51:55;42.95;;;21.73;;
75935;SDS011;64614;32.062;34.834;2023-04-07T05:54:21;40.63;;;21.85;;
75935;SDS011;64614;32.062;34.834;2023-04-07T05:56:47;37.13;;;20.60;;
75935;SDS011;64614;32.062;34.834;2023-04-07T05:59:12;38.45;;;19.38;;
75935;SDS011;64614;32.062;34.834;2023-04-07T06:01:38;35.08;;;19.38;;
75935;SDS011;64614;32.062;34.834;2023-04-07T06:06:39;29.10;;;15.68;;
75935;SDS011;64614;32.062;34.834;2023-04-07T06:09:07;28.05;;;14.82;;
75935;SDS011;64614;32.062;34.834;2023-04-07T06:11:35;25.27;;;14.35;;
75935;SDS011;64614;32.062;34.834;2023-04-07T06:14:00;23.27;;;12.25;;
75935;SDS011;64614;32.062;34.834;2023-04-07T06:16:26;24.00;;;13.60;;
75935;SDS011;64614;32.062;34.834;2023-04-07T06:18:57;26.75;;;12.65;;
75935;SDS011;64614;32.062;34.834;2023-04-07T06:21:26;21.15;;;11.35;;
75935;SDS011;64614;32.062;34.834;2023-04-07T06:23:51;19.40;;;10.80;;
75935;SDS011;64614;32.062;34.834;2023-04-07T06:26:17;21.40;;;11.07;;
75935;SDS011;64614;32.062;34.834;2023-04-07T06:28:43;20.25;;;10.13;;
75935;SDS011;64614;32.062;34.834;2023-04-07T06:31:08;21.67;;;9.93;;
75935;SDS011;64614;32.062;34.834;2023-04-07T06:33:35;20.60;;;9.25;;
75935;SDS011;64614;32.062;34.834;2023-04-07T06:36:00;19.08;;;9.75;;
75935;SDS011;64614;32.062;34.834;2023-04-07T06:38:26;19.48;;;9.63;;
75935;SDS011;64614;32.062;34.834;2023-04-07T06:40:52;17.75;;;8.68;;
75935;SDS011;64614;32.062;34.834;2023-04-07T06:43:17;19.55;;;9.20;;
75935;SDS011;64614;32.062;34.834;2023-04-07T06:45:43;17.90;;;9.18;;
75935;SDS011;64614;32.062;34.834;2023-04-07T06:48:09;18.13;;;8.63;;
75935;SDS011;64614;32.062;34.834;2023-04-07T06:50:35;16.45;;;8.48;;
75935;SDS011;64614;32.062;34.834;2023-04-07T06:53:02;18.10;;;9.43;;
75935;SDS011;64614;32.062;34.834;2023-04-07T06:55:28;16.75;;;8.52;;
75935;SDS011;64614;32.062;34.834;2023-04-07T07:00:31;17.67;;;8.98;;
75935;SDS011;64614;32.062;34.834;2023-04-07T07:02:56;14.85;;;8.32;;
75935;SDS011;64614;32.062;34.834;2023-04-07T07:05:22;15.35;;;7.85;;
75935;SDS011;64614;32.062;34.834;2023-04-07T07:07:49;14.85;;;7.53;;
75935;SDS011;64614;32.062;34.834;2023-04-07T07:10:15;13.40;;;6.85;;
75935;SDS011;64614;32.062;34.834;2023-04-07T07:12:41;17.13;;;7.45;;
75935;SDS011;64614;32.062;34.834;2023-04-07T07:15:07;14.18;;;7.55;;
75935;SDS011;64614;32.062;34.834;2023-04-07T07:17:33;15.82;;;8.00;;
75935;SDS011;64614;32.062;34.834;2023-04-07T07:19:59;15.13;;;7.30;;
75935;SDS011;64614;32.062;34.834;2023-04-07T07:22:24;17.58;;;8.02;;
75935;SDS011;64614;32.062;34.834;2023-04-07T07:24:50;14.77;;;7.03;;
75935;SDS011;64614;32.062;34.834;2023-04-07T07:27:16;13.25;;;6.80;;
75935;SDS011;64614;32.062;34.834;2023-04-07T07:29:42;13.95;;;6.72;;
75935;SDS011;64614;32.062;34.834;2023-04-07T07:32:08;15.10;;;6.03;;
75935;SDS011;64614;32.062;34.834;2023-04-07T07:34:33;12.27;;;6.05;;
75935;SDS011;64614;32.062;34.834;2023-04-07T07:37:00;11.95;;;5.82;;
75935;SDS011;64614;32.062;34.834;2023-04-07T07:39:25;16.33;;;5.47;;
75935;SDS011;64614;32.062;34.834;2023-04-07T07:41:52;15.05;;;5.55;;
75935;SDS011;64614;32.062;34.834;2023-04-07T07:44:17;11.18;;;4.90;;
75935;SDS011;64614;32.062;34.834;2023-04-07T07:46:44;11.55;;;4.82;;
75935;SDS011;64614;32.062;34.834;2023-04-07T07:49:10;11.18;;;4.90;;
75935;SDS011;64614;32.062;34.834;2023-04-07T07:51:36;12.15;;;4.95;;
75935;SDS011;64614;32.062;34.834;2023-04-07T07:54:01;13.30;;;4.78;;
75935;SDS011;64614;32.062;34.834;2023-04-07T07:56:27;12.80;;;4.22;;
75935;SDS011;64614;32.062;34.834;2023-04-07T07:58:53;16.02;;;4.80;;
75935;SDS011;64614;32.062;34.834;2023-04-07T08:01:19;15.85;;;4.60;;
75935;SDS011;64614;32.062;34.834;2023-04-07T08:03:45;13.82;;;4.03;;
75935;SDS011;64614;32.062;34.834;2023-04-07T08:06:12;12.23;;;4.43;;
75935;SDS011;64614;32.062;34.834;2023-04-07T08:08:38;12.85;;;4.03;;
75935;SDS011;64614;32.062;34.834;2023-04-07T08:11:03;11.77;;;3.60;;
75935;SDS011;64614;32.062;34.834;2023-04-07T08:13:29;9.90;;;3.55;;
75935;SDS011;64614;32.062;34.834;2023-04-07T08:15:54;8.38;;;3.30;;
75935;SDS011;64614;32.062;34.834;2023-04-07T08:18:20;11.52;;;3.72;;
75935;SDS011;64614;32.062;34.834;2023-04-07T08:20:46;14.32;;;2.95;;
75935;SDS011;64614;32.062;34.834;2023-04-07T08:23:11;14.00;;;2.78;;
75935;SDS011;64614;32.062;34.834;2023-04-07T08:25:37;13.40;;;2.50;;
75935;SDS011;64614;32.062;34.834;2023-04-07T08:28:06;15.07;;;2.42;;
75935;SDS011;64614;32.062;34.834;2023-04-07T08:30:31;14.02;;;2.60;;
75935;SDS011;64614;32.062;34.834;2023-04-07T08:32:57;12.35;;;2.42;;
75935;SDS011;64614;32.062;34.834;2023-04-07T08:35:23;13.68;;;2.65;;
75935;SDS011;64614;32.062;34.834;2023-04-07T08:37:48;11.50;;;2.30;;
75935;SDS011;64614;32.062;34.834;2023-04-07T08:40:14;9.55;;;2.40;;
75935;SDS011;64614;32.062;34.834;2023-04-07T08:42:41;13.05;;;3.00;;
75935;SDS011;64614;32.062;34.834;2023-04-07T08:45:10;10.23;;;2.70;;
75935;SDS011;64614;32.062;34.834;2023-04-07T08:47:38;14.30;;;2.63;;
75935;SDS011;64614;32.062;34.834;2023-04-07T08:50:09;10.80;;;2.50;;
75935;SDS011;64614;32.062;34.834;2023-04-07T08:52:52;12.35;;;2.70;;
75935;SDS011;64614;32.062;34.834;2023-04-07T08:55:19;7.63;;;2.35;;
75935;SDS011;64614;32.062;34.834;2023-04-07T08:57:45;6.85;;;2.40;;
75935;SDS011;64614;32.062;34.834;2023-04-07T09:00:12;7.78;;;2.50;;
75935;SDS011;64614;32.062;34.834;2023-04-07T09:02:39;7.75;;;2.45;;
75935;SDS011;64614;32.062;34.834;2023-04-07T09:05:10;6.38;;;2.17;;
75935;SDS011;64614;32.062;34.834;2023-04-07T09:07:37;7.72;;;2.80;;
75935;SDS011;64614;32.062;34.834;2023-04-07T09:10:10;8.20;;;2.60;;
75935;SDS011;64614;32.062;34.834;2023-04-07T09:12:36;8.43;;;2.90;;
75935;SDS011;64614;32.062;34.834;2023-04-07T09:15:02;6.80;;;2.80;;
75935;SDS011;64614;32.062;34.834;2023-04-07T09:17:29;7.75;;;2.60;;
75935;SDS011;64614;32.062;34.834;2023-04-07T09:19:57;7.97;;;2.75;;
75935;SDS011;64614;32.062;34.834;2023-04-07T09:25:23;7.90;;;2.70;;
75935;SDS011;64614;32.062;34.834;2023-04-07T09:28:03;8.30;;;2.83;;
75935;SDS011;64614;32.062;34.834;2023-04-07T09:30:30;7.75;;;2.75;;
75935;SDS011;64614;32.062;34.834;2023-04-07T09:32:57;5.40;;;2.58;;
75935;SDS011;64614;32.062;34.834;2023-04-07T09:35:24;6.28;;;2.50;;
75935;SDS011;64614;32.062;34.834;2023-04-07T09:38:08;6.45;;;2.42;;
75935;SDS011;64614;32.062;34.834;2023-04-07T09:40:34;6.03;;;2.45;;
75935;SDS011;64614;32.062;34.834;2023-04-07T09:43:02;6.57;;;2.45;;
75935;SDS011;64614;32.062;34.834;2023-04-07T09:45:28;4.88;;;2.53;;
75935;SDS011;64614;32.062;34.834;2023-04-07T09:48:01;5.53;;;2.33;;
75935;SDS011;64614;32.062;34.834;2023-04-07T09:50:34;6.85;;;2.58;;
75935;SDS011;64614;32.062;34.834;2023-04-07T09:53:05;6.45;;;2.55;;
75935;SDS011;64614;32.062;34.834;2023-04-07T09:55:31;7.43;;;2.55;;
75935;SDS011;64614;32.062;34.834;2023-04-07T09:57:57;10.27;;;2.97;;
75935;SDS011;64614;32.062;34.834;2023-04-07T10:00:25;8.27;;;2.85;;
75935;SDS011;64614;32.062;34.834;2023-04-07T10:02:54;9.13;;;2.38;;
75935;SDS011;64614;32.062;34.834;2023-04-07T10:07:56;14.18;;;3.55;;
75935;SDS011;64614;32.062;34.834;2023-04-07T10:10:23;10.18;;;3.03;;
75935;SDS011;64614;32.062;34.834;2023-04-07T10:12:50;10.07;;;2.83;;
75935;SDS011;64614;32.062;34.834;2023-04-07T10:15:18;10.18;;;2.53;;
75935;SDS011;64614;32.062;34.834;2023-04-07T10:17:45;11.45;;;3.30;;
75935;SDS011;64614;32.062;34.834;2023-04-07T10:20:17;8.27;;;2.83;;
75935;SDS011;64614;32.062;34.834;2023-04-07T10:22:50;8.00;;;2.63;;
75935;SDS011;64614;32.062;34.834;2023-04-07T10:25:18;9.52;;;3.45;;
75935;SDS011;64614;32.062;34.834;2023-04-07T10:30:23;13.00;;;3.08;;
75935;SDS011;64614;32.062;34.834;2023-04-07T10:32:51;11.77;;;3.25;;
75935;SDS011;64614;32.062;34.834;2023-04-07T10:35:18;13.07;;;2.90;;
75935;SDS011;64614;32.062;34.834;2023-04-07T10:40:34;8.05;;;2.65;;
75935;SDS011;64614;32.062;34.834;2023-04-07T10:43:01;9.55;;;3.00;;
75935;SDS011;64614;32.062;34.834;2023-04-07T10:48:16;8.32;;;2.67;;
75935;SDS011;64614;32.062;34.834;2023-04-07T10:50:43;6.93;;;2.53;;
75935;SDS011;64614;32.062;34.834;2023-04-07T10:53:11;7.25;;;2.30;;
75935;SDS011;64614;32.062;34.834;2023-04-07T10:58:22;6.63;;;2.15;;
75935;SDS011;64614;32.062;34.834;2023-04-07T11:03:37;6.75;;;2.30;;
75935;SDS011;64614;32.062;34.834;2023-04-07T11:08:43;6.97;;;1.90;;
75935;SDS011;64614;32.062;34.834;2023-04-07T11:11:13;6.93;;;2.15;;
75935;SDS011;64614;32.062;34.834;2023-04-07T11:13:40;10.50;;;2.30;;
75935;SDS011;64614;32.062;34.834;2023-04-07T11:16:14;7.20;;;2.13;;
75935;SDS011;64614;32.062;34.834;2023-04-07T11:18:41;7.25;;;2.10;;
75935;SDS011;64614;32.062;34.834;2023-04-07T11:21:08;6.18;;;1.90;;
75935;SDS011;64614;32.062;34.834;2023-04-07T11:23:37;7.35;;;2.13;;
75935;SDS011;64614;32.062;34.834;2023-04-07T11:26:07;7.43;;;1.80;;
75935;SDS011;64614;32.062;34.834;2023-04-07T11:28:35;5.55;;;1.70;;
75935;SDS011;64614;32.062;34.834;2023-04-07T11:31:11;7.25;;;2.05;;
75935;SDS011;64614;32.062;34.834;2023-04-07T11:33:37;7.18;;;1.90;;
75935;SDS011;64614;32.062;34.834;2023-04-07T11:36:04;5.55;;;1.90;;
75935;SDS011;64614;32.062;34.834;2023-04-07T11:38:34;3.80;;;1.60;;
75935;SDS011;64614;32.062;34.834;2023-04-07T11:41:12;6.85;;;1.80;;
75935;SDS011;64614;32.062;34.834;2023-04-07T11:43:39;6.97;;;1.83;;
75935;SDS011;64614;32.062;34.834;2023-04-07T11:48:35;5.57;;;1.73;;
75935;SDS011;64614;32.062;34.834;2023-04-07T11:51:02;5.13;;;1.65;;
75935;SDS011;64614;32.062;34.834;2023-04-07T11:53:28;5.38;;;1.65;;
75935;SDS011;64614;32.062;34.834;2023-04-07T11:56:05;5.20;;;1.55;;
75935;SDS011;64614;32.062;34.834;2023-04-07T11:58:34;4.38;;;1.40;;
75935;SDS011;64614;32.062;34.834;2023-04-07T12:01:04;4.40;;;1.25;;
75935;SDS011;64614;32.062;34.834;2023-04-07T12:03:33;4.57;;;1.20;;
75935;SDS011;64614;32.062;34.834;2023-04-07T12:06:03;2.55;;;1.13;;
75935;SDS011;64614;32.062;34.834;2023-04-07T12:08:41;2.88;;;1.25;;
75935;SDS011;64614;32.062;34.834;2023-04-07T12:11:08;2.28;;;1.20;;
75935;SDS011;64614;32.062;34.834;2023-04-07T12:13:35;3.15;;;1.20;;
75935;SDS011;64614;32.062;34.834;2023-04-07T12:16:01;3.00;;;1.23;;
75935;SDS011;64614;32.062;34.834;2023-04-07T12:18:28;3.65;;;1.10;;
75935;SDS011;64614;32.062;34.834;2023-04-07T12:20:54;2.30;;;1.20;;
75935;SDS011;64614;32.062;34.834;2023-04-07T12:23:21;1.98;;;1.20;;
75935;SDS011;64614;32.062;34.834;2023-04-07T12:25:47;2.42;;;1.20;;
75935;SDS011;64614;32.062;34.834;2023-04-07T12:28:13;3.00;;;1.00;;
75935;SDS011;64614;32.062;34.834;2023-04-07T12:30:38;2.80;;;1.25;;
75935;SDS011;64614;32.062;34.834;2023-04-07T12:33:04;3.10;;;1.35;;
75935;SDS011;64614;32.062;34.834;2023-04-07T12:35:30;2.80;;;1.27;;
75935;SDS011;64614;32.062;34.834;2023-04-07T12:37:56;2.63;;;1.20;;
75935;SDS011;64614;32.062;34.834;2023-04-07T12:40:22;3.67;;;1.00;;
75935;SDS011;64614;32.062;34.834;2023-04-07T12:42:48;3.17;;;1.10;;
75935;SDS011;64614;32.062;34.834;2023-04-07T12:45:14;1.73;;;0.93;;
75935;SDS011;64614;32.062;34.834;2023-04-07T12:47:40;3.63;;;1.30;;
75935;SDS011;64614;32.062;34.834;2023-04-07T12:50:06;5.03;;;1.20;;
75935;SDS011;64614;32.062;34.834;2023-04-07T12:52:32;3.72;;;1.20;;
75935;SDS011;64614;32.062;34.834;2023-04-07T12:54:57;3.97;;;1.13;;
75935;SDS011;64614;32.062;34.834;2023-04-07T12:57:24;3.17;;;1.30;;
75935;SDS011;64614;32.062;34.834;2023-04-07T12:59:50;3.13;;;1.20;;
75935;SDS011;64614;32.062;34.834;2023-04-07T13:02:17;4.10;;;1.35;;
75935;SDS011;64614;32.062;34.834;2023-04-07T13:04:43;5.22;;;1.63;;
75935;SDS011;64614;32.062;34.834;2023-04-07T13:07:14;5.93;;;1.70;;
75935;SDS011;64614;32.062;34.834;2023-04-07T13:09:40;7.15;;;1.80;;
75935;SDS011;64614;32.062;34.834;2023-04-07T13:12:09;4.32;;;1.58;;
75935;SDS011;64614;32.062;34.834;2023-04-07T13:14:36;8.32;;;2.05;;
75935;SDS011;64614;32.062;34.834;2023-04-07T13:17:06;7.15;;;2.10;;
75935;SDS011;64614;32.062;34.834;2023-04-07T13:19:32;5.82;;;1.85;;
75935;SDS011;64614;32.062;34.834;2023-04-07T13:21:58;6.90;;;1.80;;
75935;SDS011;64614;32.062;34.834;2023-04-07T13:24:24;4.82;;;1.60;;
75935;SDS011;64614;32.062;34.834;2023-04-07T13:26:51;5.05;;;1.67;;
75935;SDS011;64614;32.062;34.834;2023-04-07T13:29:17;5.18;;;1.70;;
75935;SDS011;64614;32.062;34.834;2023-04-07T13:31:45;9.35;;;2.50;;
75935;SDS011;64614;32.062;34.834;2023-04-07T13:34:12;7.57;;;2.00;;
75935;SDS011;64614;32.062;34.834;2023-04-07T13:36:38;6.90;;;1.83;;
75935;SDS011;64614;32.062;34.834;2023-04-07T13:39:05;7.03;;;2.10;;
75935;SDS011;64614;32.062;34.834;2023-04-07T13:41:31;6.97;;;2.08;;
75935;SDS011;64614;32.062;34.834;2023-04-07T13:43:56;4.97;;;2.05;;
75935;SDS011;64614;32.062;34.834;2023-04-07T13:46:25;5.30;;;1.80;;
75935;SDS011;64614;32.062;34.834;2023-04-07T13:48:51;6.25;;;2.10;;
75935;SDS011;64614;32.062;34.834;2023-04-07T13:51:17;5.97;;;1.90;;
75935;SDS011;64614;32.062;34.834;2023-04-07T13:53:44;5.82;;;2.10;;
75935;SDS011;64614;32.062;34.834;2023-04-07T13:56:10;7.20;;;2.22;;
75935;SDS011;64614;32.062;34.834;2023-04-07T13:58:36;5.15;;;1.80;;
75935;SDS011;64614;32.062;34.834;2023-04-07T14:01:02;6.10;;;1.90;;
75935;SDS011;64614;32.062;34.834;2023-04-07T14:03:28;5.60;;;2.28;;
75935;SDS011;64614;32.062;34.834;2023-04-07T14:05:54;4.45;;;1.92;;
75935;SDS011;64614;32.062;34.834;2023-04-07T14:08:24;5.63;;;1.90;;
75935;SDS011;64614;32.062;34.834;2023-04-07T14:10:50;6.47;;;1.90;;
75935;SDS011;64614;32.062;34.834;2023-04-07T14:13:16;5.25;;;1.92;;
75935;SDS011;64614;32.062;34.834;2023-04-07T14:15:42;5.53;;;2.28;;
75935;SDS011;64614;32.062;34.834;2023-04-07T14:18:08;4.80;;;1.90;;
75935;SDS011;64614;32.062;34.834;2023-04-07T14:20:33;5.72;;;1.80;;
75935;SDS011;64614;32.062;34.834;2023-04-07T14:22:59;4.88;;;1.90;;
75935;SDS011;64614;32.062;34.834;2023-04-07T14:25:25;5.07;;;2.03;;
75935;SDS011;64614;32.062;34.834;2023-04-07T14:27:51;4.90;;;2.08;;
75935;SDS011;64614;32.062;34.834;2023-04-07T14:30:17;5.25;;;1.85;;
75935;SDS011;64614;32.062;34.834;2023-04-07T14:32:43;5.20;;;1.90;;
75935;SDS011;64614;32.062;34.834;2023-04-07T14:35:09;4.43;;;1.98;;
75935;SDS011;64614;32.062;34.834;2023-04-07T14:37:35;5.80;;;2.20;;
75935;SDS011;64614;32.062;34.834;2023-04-07T14:40:04;4.93;;;1.95;;
75935;SDS011;64614;32.062;34.834;2023-04-07T14:42:31;5.25;;;1.85;;
75935;SDS011;64614;32.062;34.834;2023-04-07T14:44:58;4.97;;;1.90;;
75935;SDS011;64614;32.062;34.834;2023-04-07T14:47:24;4.38;;;1.88;;
75935;SDS011;64614;32.062;34.834;2023-04-07T14:49:50;3.30;;;1.60;;
75935;SDS011;64614;32.062;34.834;2023-04-07T14:52:16;4.93;;;1.77;;
75935;SDS011;64614;32.062;34.834;2023-04-07T14:54:42;4.70;;;1.85;;
75935;SDS011;64614;32.062;34.834;2023-04-07T14:57:08;7.88;;;2.15;;
75935;SDS011;64614;32.062;34.834;2023-04-07T14:59:33;6.43;;;1.98;;
75935;SDS011;64614;32.062;34.834;2023-04-07T15:01:59;4.53;;;1.90;;
75935;SDS011;64614;32.062;34.834;2023-04-07T15:04:25;5.90;;;1.95;;